View Sortable Currents For Network
ASOSAWOSCoCoRaHSCOOPDCPISUSM
SchoolNetOtherSCANMy FavoritesBy StateRWIS
RWIS SurfaceRWIS TrafficRWIS SoilBy NWS WFOUSCRN

Current AWOS Conditions

** This page will automatically refresh every five minutes.
Sorted by: (Today's High Temperature)     Click on a column to sort it.

Add ID: Name: Ob Time   Wind [knots]   Rainfall
Temp (Hi / Lo) DewP Feels RH% Dir Speed Peak Gust
@ Time
Alti Vsby Hour Today
MPZMOUNT PLEASANT03:55 AM 46(54/46) 37 42 71 280 68 @ 12:35 AM 30.03 10 0
MUTMUSCATINE03:55 AM 46(52/46) 36 41 68 270 816 @ 02:15 AM 30 10 0
PEAPELLA03:55 AM 48(51/48) 34 43 58 290 915 @ 12:35 AM 30.08 10 0
MXOMONTICELLO MUNI03:55 AM 43(50/43) 36 39 76 270 69 @ 12:15 AM 29.96 10 0
FFLFAIRFIELD03:55 AM 46(50/45) 36 41 68 280 89 @ 02:55 AM 30.04 10 0
SDASHENANDOAH MUNI03:55 AM 39(50/39) 36 89 0 06 @ 12:35 AM 30.19 10 0
ICLCLARINDA03:55 AM 45(50/41) 36 41 71 300 68 @ 12:15 AM 30.19 10 0
AWGWASHINGTON03:55 AM 45(50/45) 39 40 79 270 911 @ 03:35 AM 30.03 10 0
CBFCOUNCIL BLUFFS03:55 AM 45(50/45) 32 290 67 @ 12:15 AM 30.17 10 0
OXVKnoxville03:55 AM 45(50/45) 37 41 73 290 78 @ 12:15 AM 30.07 10 0
IKVANKENY03:15 AM 46(50/46) 36 41 68 280 813 @ 12:15 AM 30.09 10 0
FSWFORT MADISON03:55 AM 46(50/46) 37 42 71 280 68 @ 03:15 AM 30.04 10 0
CNCCHARITON03:55 AM 43(50/43) 36 38 76 280 89 @ 03:15 AM 30.09 10 0
EOKKEOKUK MUNI03:55 AM 46(50/46) 39 42 76 290 79 @ 02:35 AM 30.03 10 0
PROPerry04:15 AM 44(50/43) 33 41 65 290 57 @ 12:15 AM 30.1 10 0
I75Osceola03:55 AM 42(50/42) 35 38 76 270 58 @ 12:15 AM 30.11 10 0
VTIVINTON03:55 AM 41(48/41) 33 35 73 270 814 @ 01:15 AM 30 10 0
IIBINDEPENDENCE03:55 AM 45(48/44) 36 39 71 290 1215 @ 12:15 AM 29.98 10 0
RDKRED OAK03:55 AM 43(48/43) 34 39 70 290 57 @ 12:15 AM 30.17 10 0
CINCARROLL03:55 AM 41(48/41) 36 35 82 270 89 @ 12:35 AM 30.11 10 0
TVKCenterville03:55 AM 45(48/45) 36 40 71 260 811 @ 12:15 AM 30.1 10 0
SLBStorm Lake03:55 AM 37(48/37) 32 280 1010 @ 12:15 AM 30.11 10 0
BNWBOONE MUNI03:55 AM 46(48/46) 34 40 63 290 1117 @ 02:35 AM 30.07 10 0
TNUNEWTON MUNI03:55 AM 45(48/45) 36 40 71 290 911 @ 02:55 AM 30.06 10 0
AIOATLANTIC03:55 AM 45(48/43) 34 41 65 280 79 @ 02:15 AM 30.15 10 0
OOAOskaloosa03:55 AM 38(47/37) 35 32 89 280 79 @ 12:15 AM 30.06 10 0
FODFORT DODGE03:56 AM 44(47/44) 34 39 68 270 714 @ 01:56 AM 30.07 10 0
IFAIowa Falls03:55 AM 43(47/43) 35 38 73 270 816 @ 01:55 AM 30.04 10 0
AXAALGONA03:55 AM 41(46/41) 34 33 76 270 1212 @ 02:55 AM 30.04 10 0
CAVCLARION03:55 AM 43(46/43) 34 36 70 280 1112 @ 02:35 AM 30.04 10 0
ADUAUDUBON03:55 AM 43(46/43) 34 70 0 04 @ 02:55 AM 30.15 10 0
CSQCRESTON03:55 AM 39(46/39) 36 33 89 280 88 @ 02:55 AM 30.15 10 0
CCYCHARLES CITY03:55 AM 41(46/41) 34 35 76 270 912 @ 12:35 AM 29.97 10 0
OLZOELWEIN03:55 AM 45(46/45) 36 39 71 280 1115 @ 01:35 AM 29.97 0
EBSWebster City03:35 AM 45(46/45) 34 39 65 270 1015 @ 01:15 AM 30.04 10 0
HNRHARLAN03:55 AM 43(46/43) 34 37 70 290 1011 @ 02:15 AM 30.16 10 0
GGIGrinnell03:55 AM 43(46/43) 35 37 73 280 910 @ 03:15 AM 30.06 10 0
CKPCherokee03:55 AM 41(45/41) 32 290 88 @ 01:15 AM 30.13 10 0
HPTHampton03:55 AM 45(45/43) 34 39 65 280 1015 @ 01:35 AM 30.01 10 0
DNSDENISON03:55 AM 41(45/39) 32 0 04 @ 01:55 AM 30.16 10 0
LRJLE MARS03:55 AM 39(45/39) 32 280 57 @ 12:15 AM 30.16 10 0
DEHDECORAH03:55 AM 41(45/41) 36 39 82 35 @ 12:35 AM 29.91 10 0
CWICLINTON03:56 AM 39(43/39) 36 33 89 260 78 @ 12:10 AM 29.95 10 0
ORCOrange City03:55 AM 39(43/39) 34 33 82 300 77 @ 01:15 AM 30.14 10 0
SHLSHELDON03:55 AM 39(43/39) 34 33 82 280 89 @ 02:55 AM 30.1 10 0
FXYForest City03:55 AM 43(43/41) 34 37 70 280 99 @ 03:35 AM 30.01 10 0